sensor_id;sensor_type;location;lat;lon;timestamp;temperature;humidity
40630;DHT22;26329;40.388;-3.710;2023-08-06T00:02:54;26.20;32.40
40630;DHT22;26329;40.388;-3.710;2023-08-06T00:12:54;26.10;32.70
40630;DHT22;26329;40.388;-3.710;2023-08-06T00:22:55;25.80;33.50
40630;DHT22;26329;40.388;-3.710;2023-08-06T00:32:56;25.20;34.00
40630;DHT22;26329;40.388;-3.710;2023-08-06T00:42:56;25.00;34.30
40630;DHT22;26329;40.388;-3.710;2023-08-06T00:52:58;24.90;34.60
40630;DHT22;26329;40.388;-3.710;2023-08-06T01:02:59;24.90;34.50
40630;DHT22;26329;40.388;-3.710;2023-08-06T01:23:04;24.70;34.90
40630;DHT22;26329;40.388;-3.710;2023-08-06T01:33:05;24.60;35.10
40630;DHT22;26329;40.388;-3.710;2023-08-06T01:43:06;24.50;35.20
40630;DHT22;26329;40.388;-3.710;2023-08-06T01:53:07;24.40;35.10
40630;DHT22;26329;40.388;-3.710;2023-08-06T02:03:08;24.60;34.20
40630;DHT22;26329;40.388;-3.710;2023-08-06T02:13:09;24.60;33.20
40630;DHT22;26329;40.388;-3.710;2023-08-06T02:23:09;24.70;32.80
40630;DHT22;26329;40.388;-3.710;2023-08-06T02:33:10;24.70;32.60
40630;DHT22;26329;40.388;-3.710;2023-08-06T02:43:11;24.70;31.60
40630;DHT22;26329;40.388;-3.710;2023-08-06T02:53:12;24.80;31.20
40630;DHT22;26329;40.388;-3.710;2023-08-06T03:03:12;24.60;31.30
40630;DHT22;26329;40.388;-3.710;2023-08-06T03:13:13;24.70;31.00
40630;DHT22;26329;40.388;-3.710;2023-08-06T03:23:14;24.30;31.50
40630;DHT22;26329;40.388;-3.710;2023-08-06T03:33:14;24.20;31.90
40630;DHT22;26329;40.388;-3.710;2023-08-06T03:43:15;24.00;32.30
40630;DHT22;26329;40.388;-3.710;2023-08-06T03:53:16;24.10;32.40
40630;DHT22;26329;40.388;-3.710;2023-08-06T04:03:17;23.80;32.60
40630;DHT22;26329;40.388;-3.710;2023-08-06T04:13:18;23.80;32.80
40630;DHT22;26329;40.388;-3.710;2023-08-06T04:23:18;23.60;33.00
40630;DHT22;26329;40.388;-3.710;2023-08-06T04:33:20;23.50;33.50
40630;DHT22;26329;40.388;-3.710;2023-08-06T04:43:21;23.50;34.50
40630;DHT22;26329;40.388;-3.710;2023-08-06T04:53:22;23.40;35.10
40630;DHT22;26329;40.388;-3.710;2023-08-06T05:03:23;23.20;35.80
40630;DHT22;26329;40.388;-3.710;2023-08-06T05:13:23;23.40;35.90
40630;DHT22;26329;40.388;-3.710;2023-08-06T05:23:25;23.20;36.50
40630;DHT22;26329;40.388;-3.710;2023-08-06T05:33:26;23.10;37.00
40630;DHT22;26329;40.388;-3.710;2023-08-06T05:43:27;22.90;38.20
40630;DHT22;26329;40.388;-3.710;2023-08-06T05:53:27;22.80;39.00
40630;DHT22;26329;40.388;-3.710;2023-08-06T06:03:28;22.80;39.80
40630;DHT22;26329;40.388;-3.710;2023-08-06T06:13:29;22.80;40.50
40630;DHT22;26329;40.388;-3.710;2023-08-06T06:23:29;22.80;41.30
40630;DHT22;26329;40.388;-3.710;2023-08-06T06:33:30;22.80;41.70
40630;DHT22;26329;40.388;-3.710;2023-08-06T06:43:31;22.90;42.10
40630;DHT22;26329;40.388;-3.710;2023-08-06T06:53:32;23.40;42.00
40630;DHT22;26329;40.388;-3.710;2023-08-06T07:03:32;24.00;41.00
40630;DHT22;26329;40.388;-3.710;2023-08-06T07:13:36;24.60;40.00
40630;DHT22;26329;40.388;-3.710;2023-08-06T07:23:37;24.70;39.80
40630;DHT22;26329;40.388;-3.710;2023-08-06T07:33:37;25.20;39.60
40630;DHT22;26329;40.388;-3.710;2023-08-06T07:43:38;25.70;38.80
40630;DHT22;26329;40.388;-3.710;2023-08-06T07:53:40;26.00;38.50
40630;DHT22;26329;40.388;-3.710;2023-08-06T08:03:41;26.40;38.30
40630;DHT22;26329;40.388;-3.710;2023-08-06T08:13:41;26.60;37.90
40630;DHT22;26329;40.388;-3.710;2023-08-06T08:23:42;26.70;37.70
40630;DHT22;26329;40.388;-3.710;2023-08-06T08:33:44;26.90;37.90
40630;DHT22;26329;40.388;-3.710;2023-08-06T08:43:45;27.20;37.20
40630;DHT22;26329;40.388;-3.710;2023-08-06T08:53:47;27.50;36.80
40630;DHT22;26329;40.388;-3.710;2023-08-06T09:03:51;27.80;36.50
40630;DHT22;26329;40.388;-3.710;2023-08-06T09:13:55;27.90;36.30
40630;DHT22;26329;40.388;-3.710;2023-08-06T09:23:58;27.90;35.80
40630;DHT22;26329;40.388;-3.710;2023-08-06T09:34:00;28.20;35.10
40630;DHT22;26329;40.388;-3.710;2023-08-06T09:44:01;28.20;34.90
40630;DHT22;26329;40.388;-3.710;2023-08-06T09:54:03;28.60;34.80
40630;DHT22;26329;40.388;-3.710;2023-08-06T10:04:06;28.70;33.50
40630;DHT22;26329;40.388;-3.710;2023-08-06T10:14:14;28.80;33.20
40630;DHT22;26329;40.388;-3.710;2023-08-06T10:24:16;29.00;33.00
40630;DHT22;26329;40.388;-3.710;2023-08-06T10:34:16;29.20;30.70
40630;DHT22;26329;40.388;-3.710;2023-08-06T10:44:20;29.30;31.00
40630;DHT22;26329;40.388;-3.710;2023-08-06T10:54:21;29.40;30.70
40630;DHT22;26329;40.388;-3.710;2023-08-06T11:04:22;29.70;30.10
40630;DHT22;26329;40.388;-3.710;2023-08-06T11:14:22;29.70;30.10
40630;DHT22;26329;40.388;-3.710;2023-08-06T11:24:26;29.80;30.40
40630;DHT22;26329;40.388;-3.710;2023-08-06T11:34:27;29.90;29.80
40630;DHT22;26329;40.388;-3.710;2023-08-06T11:44:30;30.20;29.30
40630;DHT22;26329;40.388;-3.710;2023-08-06T11:54:33;30.30;29.20
40630;DHT22;26329;40.388;-3.710;2023-08-06T12:05:03;30.70;28.90
40630;DHT22;26329;40.388;-3.710;2023-08-06T12:15:08;30.80;28.40
40630;DHT22;26329;40.388;-3.710;2023-08-06T12:25:11;31.00;28.30
40630;DHT22;26329;40.388;-3.710;2023-08-06T12:35:12;31.20;28.20
40630;DHT22;26329;40.388;-3.710;2023-08-06T12:45:14;31.20;28.10
40630;DHT22;26329;40.388;-3.710;2023-08-06T12:55:15;31.60;27.30
40630;DHT22;26329;40.388;-3.710;2023-08-06T13:05:16;31.70;27.30
40630;DHT22;26329;40.388;-3.710;2023-08-06T13:15:16;31.80;27.10
40630;DHT22;26329;40.388;-3.710;2023-08-06T13:25:20;32.10;26.80
40630;DHT22;26329;40.388;-3.710;2023-08-06T13:35:21;32.20;26.90
40630;DHT22;26329;40.388;-3.710;2023-08-06T13:45:22;32.30;26.40
40630;DHT22;26329;40.388;-3.710;2023-08-06T13:55:22;32.60;26.30
40630;DHT22;26329;40.388;-3.710;2023-08-06T14:05:23;32.80;26.00
40630;DHT22;26329;40.388;-3.710;2023-08-06T14:15:24;33.00;25.80
40630;DHT22;26329;40.388;-3.710;2023-08-06T14:25:25;33.30;25.00
40630;DHT22;26329;40.388;-3.710;2023-08-06T14:35:25;33.70;24.80
40630;DHT22;26329;40.388;-3.710;2023-08-06T14:45:26;33.60;24.30
40630;DHT22;26329;40.388;-3.710;2023-08-06T14:55:27;33.60;24.20
40630;DHT22;26329;40.388;-3.710;2023-08-06T15:05:28;33.70;24.20
40630;DHT22;26329;40.388;-3.710;2023-08-06T15:15:28;33.80;24.20
40630;DHT22;26329;40.388;-3.710;2023-08-06T15:25:29;34.10;23.20
40630;DHT22;26329;40.388;-3.710;2023-08-06T15:35:30;34.40;23.20
40630;DHT22;26329;40.388;-3.710;2023-08-06T15:45:30;34.60;22.80
40630;DHT22;26329;40.388;-3.710;2023-08-06T15:55:31;34.50;23.00
40630;DHT22;26329;40.388;-3.710;2023-08-06T16:05:34;34.40;22.10
40630;DHT22;26329;40.388;-3.710;2023-08-06T16:15:35;34.40;22.40
40630;DHT22;26329;40.388;-3.710;2023-08-06T16:25:39;34.30;22.50
40630;DHT22;26329;40.388;-3.710;2023-08-06T16:35:45;34.30;22.50
40630;DHT22;26329;40.388;-3.710;2023-08-06T16:45:46;34.30;22.90
40630;DHT22;26329;40.388;-3.710;2023-08-06T16:55:47;34.30;23.00
40630;DHT22;26329;40.388;-3.710;2023-08-06T17:05:48;34.20;22.80
40630;DHT22;26329;40.388;-3.710;2023-08-06T17:15:49;34.10;23.20
40630;DHT22;26329;40.388;-3.710;2023-08-06T17:25:49;34.20;22.70
40630;DHT22;26329;40.388;-3.710;2023-08-06T17:35:50;33.90;22.90
40630;DHT22;26329;40.388;-3.710;2023-08-06T17:45:51;33.80;22.90
40630;DHT22;26329;40.388;-3.710;2023-08-06T17:55:51;33.70;22.40
40630;DHT22;26329;40.388;-3.710;2023-08-06T18:05:58;33.60;22.60
40630;DHT22;26329;40.388;-3.710;2023-08-06T18:15:59;33.40;21.90
40630;DHT22;26329;40.388;-3.710;2023-08-06T18:26:00;33.20;21.80
40630;DHT22;26329;40.388;-3.710;2023-08-06T18:36:01;33.20;21.50
40630;DHT22;26329;40.388;-3.710;2023-08-06T18:46:02;33.00;21.50
40630;DHT22;26329;40.388;-3.710;2023-08-06T18:56:03;32.80;21.60
40630;DHT22;26329;40.388;-3.710;2023-08-06T19:06:03;32.60;21.50
40630;DHT22;26329;40.388;-3.710;2023-08-06T19:16:06;32.50;21.20
40630;DHT22;26329;40.388;-3.710;2023-08-06T19:26:07;32.30;20.90
40630;DHT22;26329;40.388;-3.710;2023-08-06T19:36:08;32.20;20.90
40630;DHT22;26329;40.388;-3.710;2023-08-06T19:46:09;31.90;20.50
40630;DHT22;26329;40.388;-3.710;2023-08-06T19:56:09;31.70;18.60
40630;DHT22;26329;40.388;-3.710;2023-08-06T20:06:10;31.60;17.10
40630;DHT22;26329;40.388;-3.710;2023-08-06T20:16:12;31.40;16.60
40630;DHT22;26329;40.388;-3.710;2023-08-06T20:26:13;31.30;16.50
40630;DHT22;26329;40.388;-3.710;2023-08-06T20:36:14;31.10;15.60
40630;DHT22;26329;40.388;-3.710;2023-08-06T20:46:15;30.80;14.90
40630;DHT22;26329;40.388;-3.710;2023-08-06T20:56:16;30.60;14.20
40630;DHT22;26329;40.388;-3.710;2023-08-06T21:06:18;30.30;14.30
40630;DHT22;26329;40.388;-3.710;2023-08-06T21:16:19;30.10;14.90
40630;DHT22;26329;40.388;-3.710;2023-08-06T21:26:20;29.80;15.10
40630;DHT22;26329;40.388;-3.710;2023-08-06T21:36:21;29.70;15.00
40630;DHT22;26329;40.388;-3.710;2023-08-06T21:46:24;29.40;15.10
40630;DHT22;26329;40.388;-3.710;2023-08-06T21:56:25;29.40;15.70
40630;DHT22;26329;40.388;-3.710;2023-08-06T22:06:26;29.20;17.70
40630;DHT22;26329;40.388;-3.710;2023-08-06T22:16:26;29.00;21.30
40630;DHT22;26329;40.388;-3.710;2023-08-06T22:26:27;28.60;23.10
40630;DHT22;26329;40.388;-3.710;2023-08-06T22:36:28;28.40;24.30
40630;DHT22;26329;40.388;-3.710;2023-08-06T22:46:28;28.00;25.50
40630;DHT22;26329;40.388;-3.710;2023-08-06T22:56:29;27.70;26.20
40630;DHT22;26329;40.388;-3.710;2023-08-06T23:06:30;27.60;26.90
40630;DHT22;26329;40.388;-3.710;2023-08-06T23:16:31;27.20;27.70
40630;DHT22;26329;40.388;-3.710;2023-08-06T23:26:31;27.00;28.20
40630;DHT22;26329;40.388;-3.710;2023-08-06T23:36:32;26.80;28.70
40630;DHT22;26329;40.388;-3.710;2023-08-06T23:46:33;26.40;29.50
40630;DHT22;26329;40.388;-3.710;2023-08-06T23:56:33;26.20;29.90
